KMANKBKE

Guest
Details From KMAN - NAMPA MUNI
To KBKE - BAKER CITY MUNI
Flight Number -
Tags decoded
Created
Modified
Stats Distance 94 nm / 173 km
Max Altitude 0 ft / 0 m
Waypoints 2
Social Downloads 0
Likes 0
Share VATSIM

Download

Looking for another format? Having issues loading an existing format? Contact us
Advertisement - Login to hide

Notes

Requested: KMAN KBKE

Route

KMAN KBKE

ID Type Via Altitude Latitude Longitude Leg Dist Tot Dist Heading (true) Name
O KMAN APT - 0 ft / 0 m 43.58134˚ -116.52306˚ - 0 nm - NAMPA MUNI
O KBKE APT - 0 ft / 0 m 44.83732˚ -117.80912˚ 93 nm 93 nm 324° / 323° BAKER CITY MUNI

Altitude Profile

Advertisement - Login to hide

KMAN

Details ICAO KMAN
Name NAMPA MUNI
Region United States
Timezone America/Boise (UTC-7.0)
Stats Elevation 2,537 ft / 773 m (AMSL)
Location 43.581342° -116.523062°
Runways 1
Magnetic Variation 13.451° E

METAR

KMAN 120035Z AUTO 00000KT 10SM OVC012 M03/M03 A3066 RMK A01

Decode

TAF

Not found

Departure Runways

ID Width Length Bearing (true) Bearing (mag) Surface Threshold Offset Overrun Length
11 75 ft / 23 m 4,994 ft / 1,522 m 125.74° 112.29° Asphalt 0 ft / 0 m 0 ft / 0 m
29 75 ft / 23 m 4,994 ft / 1,522 m 305.76° 292.31° Asphalt 0 ft / 0 m 0 ft / 0 m

KBKE

Details ICAO KBKE
Name BAKER CITY MUNI
Region United States
Timezone America/Los_Angeles (UTC-8.0)
Stats Elevation 3,373 ft / 1,028 m (AMSL)
Location 44.837325° -117.809116°
Runways 3
Magnetic Variation 14.068° E

METAR

KBKE 112353Z AUTO 10008KT 10SM CLR M02/M07 A3056 RMK AO2 SLP389 T10171072 10017 21033 56005

Decode

TAF

KBKE 112334Z 1200/1224 10010KT P6SM SKC FM120800 VRB03KT P6SM BKN015 FM121900 02010KT P6SM SKC

Decode

Destination Runways

ID Width Length Bearing (true) Bearing (mag) Surface Threshold Offset Overrun Length
08 140 ft / 43 m 3,989 ft / 1,216 m 96.83° 82.76° Asphalt 140 ft / 43 m 0 ft / 0 m
13 100 ft / 30 m 5,092 ft / 1,552 m 141.62° 127.55° Asphalt 0 ft / 0 m 0 ft / 0 m
17 75 ft / 23 m 4,363 ft / 1,330 m 181.19° 167.12° Asphalt 0 ft / 0 m 0 ft / 0 m
26 140 ft / 43 m 3,989 ft / 1,216 m 276.84° 262.77° Asphalt 190 ft / 58 m 0 ft / 0 m
31 100 ft / 30 m 5,092 ft / 1,552 m 321.62° 307.55° Asphalt 0 ft / 0 m 0 ft / 0 m
35 75 ft / 23 m 4,363 ft / 1,330 m 1.19° 347.12° Asphalt 395 ft / 120 m 0 ft / 0 m